createdAt,value
2022-10-13T00:01:22.452Z,19.80
2022-10-13T00:03:51.008Z,19.80
2022-10-13T00:06:26.438Z,21.10
2022-10-13T00:08:56.800Z,18.50
2022-10-13T00:11:27.571Z,19.40
2022-10-13T00:13:58.454Z,18.70
2022-10-13T00:16:27.885Z,17.60
2022-10-13T00:18:55.844Z,18.80
2022-10-13T00:21:26.321Z,18.30
2022-10-13T00:23:55.575Z,20.10
2022-10-13T00:26:25.447Z,19.00
2022-10-13T00:28:55.245Z,17.10
2022-10-13T00:31:26.786Z,16.40
2022-10-13T00:33:56.060Z,17.90
2022-10-13T00:36:24.833Z,17.00
2022-10-13T00:38:53.651Z,18.40
2022-10-13T00:41:22.209Z,16.10
2022-10-13T00:44:02.733Z,16.50
2022-10-13T00:46:36.403Z,17.40
2022-10-13T00:49:14.601Z,18.70
2022-10-13T00:51:50.750Z,18.30
2022-10-13T00:54:24.360Z,17.10
2022-10-13T00:56:54.234Z,16.50
2022-10-13T00:59:27.575Z,17.50
2022-10-13T01:01:59.678Z,17.00
2022-10-13T01:04:44.172Z,16.40
2022-10-13T01:07:15.170Z,15.80
2022-10-13T01:09:43.508Z,18.30
2022-10-13T01:12:24.787Z,16.30
2022-10-13T01:15:02.607Z,16.00
2022-10-13T01:17:36.479Z,14.90
2022-10-13T01:20:26.390Z,15.70
2022-10-13T01:23:15.541Z,16.10
2022-10-13T01:26:23.955Z,14.50
2022-10-13T01:29:12.161Z,14.30
2022-10-13T01:31:58.621Z,15.70
2022-10-13T01:34:32.816Z,13.60
2022-10-13T01:37:07.582Z,14.30
2022-10-13T01:39:43.441Z,15.80
2022-10-13T01:42:22.424Z,13.00
2022-10-13T01:45:01.860Z,13.70
2022-10-13T01:47:34.069Z,12.50
2022-10-13T01:50:03.376Z,13.50
2022-10-13T01:52:37.338Z,12.50
2022-10-13T01:55:11.960Z,10.70
2022-10-13T01:57:42.224Z,12.80
2022-10-13T02:00:12.148Z,12.60
2022-10-13T02:03:17.787Z,16.10
2022-10-13T02:05:55.075Z,16.60
2022-10-13T02:08:53.524Z,14.80
2022-10-13T02:11:22.951Z,13.90
2022-10-13T02:14:16.740Z,13.40
2022-10-13T02:16:47.204Z,12.80
2022-10-13T02:19:17.826Z,13.70
2022-10-13T02:21:47.281Z,11.90
2022-10-13T02:24:15.298Z,12.60
2022-10-13T02:26:43.746Z,11.60
2022-10-13T02:29:14.811Z,11.60
2022-10-13T02:31:44.992Z,9.80
2022-10-13T02:34:14.334Z,9.50
2022-10-13T02:36:42.624Z,9.80
2022-10-13T02:39:11.339Z,11.60
2022-10-13T02:41:39.607Z,11.90
2022-10-13T02:44:07.710Z,10.50
2022-10-13T02:46:37.317Z,10.10
2022-10-13T02:49:05.290Z,11.20
2022-10-13T02:51:36.285Z,8.90
2022-10-13T02:54:08.212Z,9.90
2022-10-13T02:56:36.097Z,9.60
2022-10-13T02:59:04.300Z,9.10
2022-10-13T03:01:33.367Z,8.70
2022-10-13T03:04:01.266Z,8.80
2022-10-13T03:06:29.344Z,8.00
2022-10-13T03:08:57.775Z,8.80
2022-10-13T03:11:25.889Z,7.60
2022-10-13T03:13:54.374Z,7.50
2022-10-13T03:16:22.624Z,8.30
2022-10-13T03:18:50.395Z,8.70
2022-10-13T03:21:18.239Z,8.00
2022-10-13T03:23:46.606Z,7.90
2022-10-13T03:26:15.760Z,7.80
2022-10-13T03:28:43.686Z,7.60
2022-10-13T03:31:12.916Z,7.90
2022-10-13T03:33:41.113Z,7.40
2022-10-13T03:36:09.328Z,8.20
2022-10-13T03:38:37.965Z,8.40
2022-10-13T03:41:07.821Z,6.80
2022-10-13T03:43:36.125Z,7.30
2022-10-13T03:46:06.788Z,8.00
2022-10-13T03:48:36.329Z,7.70
2022-10-13T03:51:16.424Z,7.90
2022-10-13T03:53:51.444Z,7.40
2022-10-13T03:56:22.949Z,7.70
2022-10-13T03:59:00.311Z,7.70
2022-10-13T04:01:30.482Z,8.00
2022-10-13T04:04:02.351Z,6.90
2022-10-13T04:06:31.865Z,8.10
2022-10-13T04:09:00.164Z,6.60
2022-10-13T04:11:28.153Z,6.40
2022-10-13T04:13:58.217Z,6.90
2022-10-13T04:16:29.979Z,7.00
2022-10-13T04:19:02.100Z,7.80
2022-10-13T04:21:34.272Z,7.80
2022-10-13T04:24:03.735Z,6.30
2022-10-13T04:26:34.679Z,6.40
2022-10-13T04:29:10.004Z,7.50
2022-10-13T04:31:40.518Z,5.90
2022-10-13T04:34:08.630Z,7.70
2022-10-13T04:36:36.676Z,7.20
2022-10-13T04:39:05.074Z,7.10
2022-10-13T04:41:34.452Z,7.40
2022-10-13T04:44:02.721Z,7.70
2022-10-13T04:46:30.996Z,8.10
2022-10-13T04:48:58.898Z,7.60
2022-10-13T04:51:30.640Z,8.90
2022-10-13T04:54:01.190Z,8.80
2022-10-13T04:56:29.451Z,9.20
2022-10-13T04:59:06.098Z,8.80
2022-10-13T05:01:36.045Z,8.70
2022-10-13T05:04:07.636Z,8.70
2022-10-13T05:06:58.802Z,9.30
2022-10-13T05:09:27.702Z,9.60
2022-10-13T05:11:55.577Z,8.80
2022-10-13T05:14:23.740Z,8.30
2022-10-13T05:16:51.949Z,8.90
2022-10-13T05:19:20.547Z,8.80
2022-10-13T05:21:50.651Z,9.50
2022-10-13T05:24:20.949Z,9.00
2022-10-13T05:26:50.615Z,9.10
2022-10-13T05:29:19.045Z,9.20
2022-10-13T05:31:47.413Z,11.00
2022-10-13T05:34:15.308Z,8.70
2022-10-13T05:36:43.479Z,9.00
2022-10-13T05:39:11.642Z,9.60
2022-10-13T05:41:39.617Z,9.10
2022-10-13T05:44:14.804Z,9.70
2022-10-13T05:46:54.397Z,9.20
2022-10-13T05:49:22.789Z,9.50
2022-10-13T05:51:55.300Z,15.50
2022-10-13T05:54:33.770Z,17.70
2022-10-13T05:57:08.940Z,12.10
2022-10-13T05:59:46.253Z,14.60
2022-10-13T06:02:17.190Z,13.80
2022-10-13T06:04:48.242Z,13.20
2022-10-13T06:07:17.056Z,15.50
2022-10-13T06:09:44.949Z,15.10
2022-10-13T06:12:13.221Z,13.60
2022-10-13T06:14:41.876Z,18.40
2022-10-13T06:17:12.897Z,23.20
2022-10-13T06:19:45.582Z,23.40
2022-10-13T06:22:13.417Z,12.00
2022-10-13T06:24:41.460Z,13.20
2022-10-13T06:27:11.161Z,12.40
2022-10-13T06:29:39.683Z,12.90
2022-10-13T06:32:07.521Z,10.90
2022-10-13T06:34:35.757Z,12.70
2022-10-13T06:37:03.943Z,12.90
2022-10-13T06:39:31.993Z,12.80
2022-10-13T06:42:02.261Z,12.70
2022-10-13T06:44:37.352Z,10.80
2022-10-13T06:47:05.937Z,12.20
2022-10-13T06:49:34.190Z,11.00
2022-10-13T06:52:02.606Z,11.40
2022-10-13T06:54:31.083Z,12.20
2022-10-13T06:56:58.898Z,10.30
2022-10-13T06:59:27.963Z,9.70
2022-10-13T07:01:56.377Z,8.20
2022-10-13T07:04:25.942Z,9.40
2022-10-13T07:06:56.133Z,7.10
2022-10-13T07:09:24.424Z,7.10
2022-10-13T07:11:52.492Z,7.50
2022-10-13T07:14:20.485Z,7.30
2022-10-13T07:16:49.515Z,6.90
2022-10-13T07:19:17.423Z,6.10
2022-10-13T07:21:45.493Z,6.10
2022-10-13T07:24:13.735Z,6.20
2022-10-13T07:26:41.848Z,5.80
2022-10-13T07:29:10.110Z,5.00
2022-10-13T07:31:38.751Z,5.90
2022-10-13T07:34:08.529Z,5.80
2022-10-13T07:36:37.934Z,4.30
2022-10-13T07:39:06.497Z,4.70
2022-10-13T07:41:36.939Z,4.70
2022-10-13T07:44:05.245Z,5.20
2022-10-13T07:46:39.135Z,4.10
2022-10-13T07:49:06.942Z,3.60
2022-10-13T07:51:35.075Z,4.10
2022-10-13T07:54:03.080Z,4.20
2022-10-13T07:56:36.135Z,3.80
2022-10-13T07:59:05.665Z,3.10
2022-10-13T08:01:33.767Z,3.30
2022-10-13T08:04:01.696Z,3.70
2022-10-13T08:06:29.980Z,4.00
2022-10-13T08:09:00.923Z,4.30
2022-10-13T08:11:29.149Z,3.40
2022-10-13T08:14:01.262Z,3.60
2022-10-13T08:16:31.131Z,2.60
2022-10-13T08:18:59.563Z,3.50
2022-10-13T08:21:53.264Z,3.20
2022-10-13T08:24:17.670Z,3.80
2022-10-13T08:26:46.771Z,3.10
2022-10-13T08:29:23.394Z,3.00
2022-10-13T08:31:53.929Z,4.20
2022-10-13T08:34:23.617Z,3.80
2022-10-13T08:36:54.732Z,4.30
2022-10-13T08:39:25.521Z,4.30
2022-10-13T08:41:56.673Z,3.80
2022-10-13T08:47:45.997Z,3.80
2022-10-13T08:50:18.303Z,4.10
2022-10-13T08:52:55.613Z,2.90
2022-10-13T08:55:40.492Z,3.30
2022-10-13T08:58:21.770Z,3.30
2022-10-13T09:01:10.264Z,3.70
2022-10-13T09:03:53.004Z,3.10
2022-10-13T09:06:29.050Z,3.10
2022-10-13T09:09:12.000Z,2.30
2022-10-13T09:11:46.476Z,2.70
2022-10-13T09:14:24.732Z,2.50
2022-10-13T09:16:58.234Z,2.70
2022-10-13T09:19:36.532Z,2.10
2022-10-13T09:22:34.051Z,2.80
2022-10-13T09:25:08.555Z,2.60
2022-10-13T09:27:55.091Z,1.90
2022-10-13T09:30:28.956Z,1.60
2022-10-13T09:33:09.715Z,1.40
2022-10-13T09:35:47.487Z,2.40
2022-10-13T09:38:15.794Z,1.30
2022-10-13T09:40:56.008Z,1.60
2022-10-13T09:43:38.303Z,1.20
2022-10-13T09:46:21.259Z,1.10
2022-10-13T09:48:52.324Z,2.10
2022-10-13T09:51:45.426Z,0.90
2022-10-13T09:54:35.037Z,1.30
2022-10-13T09:57:12.925Z,1.50
2022-10-13T09:59:47.423Z,2.40
2022-10-13T10:02:28.537Z,1.20
2022-10-13T10:05:01.539Z,2.20
2022-10-13T10:07:33.198Z,19.10
2022-10-13T10:10:06.567Z,5.60
2022-10-13T10:12:37.701Z,3.70
2022-10-13T10:15:20.349Z,2.30
2022-10-13T10:17:56.111Z,6.80
2022-10-13T10:20:39.468Z,5.10
2022-10-13T10:23:13.785Z,3.10
2022-10-13T10:25:45.929Z,3.00
2022-10-13T10:28:36.063Z,2.00
2022-10-13T10:31:18.636Z,3.70
2022-10-13T10:34:22.059Z,1.70
2022-10-13T10:37:08.554Z,0.80
2022-10-13T10:40:15.228Z,0.50
2022-10-13T10:42:48.425Z,1.30
2022-10-13T10:45:27.639Z,0.60
2022-10-13T10:48:00.910Z,0.70
2022-10-13T10:50:31.438Z,0.70
2022-10-13T10:53:16.398Z,0.50
2022-10-13T10:56:22.275Z,0.60
2022-10-13T10:59:25.434Z,0.50
2022-10-13T11:02:08.950Z,0.50
2022-10-13T11:04:43.124Z,0.60
2022-10-13T11:07:34.257Z,0.70
2022-10-13T11:10:26.448Z,0.90
2022-10-13T11:12:55.427Z,0.70
2022-10-13T11:15:29.206Z,0.30
2022-10-13T11:17:57.845Z,0.40
2022-10-13T11:20:25.964Z,1.10
2022-10-13T11:23:00.363Z,0.70
2022-10-13T11:25:45.049Z,0.80
2022-10-13T11:28:22.371Z,1.20
2022-10-13T11:30:51.111Z,1.40
2022-10-13T11:33:38.357Z,0.70
2022-10-13T11:36:32.890Z,1.10
2022-10-13T11:39:13.111Z,1.50
2022-10-13T11:42:26.145Z,2.70
2022-10-13T11:44:57.653Z,3.30
2022-10-13T11:47:44.442Z,6.90
2022-10-13T11:50:34.556Z,3.60
2022-10-13T11:53:05.399Z,4.50
2022-10-13T11:55:55.362Z,3.10
2022-10-13T11:58:42.602Z,2.50
2022-10-13T12:01:16.537Z,5.10
2022-10-13T12:03:46.871Z,6.50
2022-10-13T12:06:34.388Z,1.80
2022-10-13T12:09:07.506Z,1.50
2022-10-13T12:11:37.937Z,5.90
2022-10-13T12:17:24.070Z,5.50
2022-10-13T12:19:54.306Z,1.30
2022-10-13T12:22:22.452Z,2.00
2022-10-13T12:24:59.527Z,0.90
2022-10-13T12:27:29.619Z,0.70
2022-10-13T12:29:57.768Z,0.80
2022-10-13T12:32:28.783Z,0.90
2022-10-13T12:35:09.926Z,1.20
2022-10-13T12:37:38.477Z,0.80
2022-10-13T12:40:09.573Z,0.70
2022-10-13T12:42:38.454Z,0.70
2022-10-13T12:45:07.280Z,0.80
2022-10-13T12:47:44.675Z,0.90
2022-10-13T12:50:31.049Z,0.60
2022-10-13T12:53:04.996Z,0.70
2022-10-13T12:55:33.089Z,1.10
2022-10-13T12:58:03.211Z,0.60
2022-10-13T13:00:31.672Z,0.90
2022-10-13T13:03:01.190Z,0.60
2022-10-13T13:05:39.634Z,1.00
2022-10-13T13:08:32.069Z,0.80
2022-10-13T13:11:02.542Z,0.70
2022-10-13T13:13:31.156Z,0.80
2022-10-13T13:16:31.604Z,0.60
2022-10-13T13:18:59.711Z,0.70
2022-10-13T13:21:30.711Z,0.70
2022-10-13T13:23:59.470Z,0.70
2022-10-13T13:26:29.453Z,0.70
2022-10-13T13:28:57.475Z,0.70
2022-10-13T13:31:26.335Z,0.90
2022-10-13T13:33:54.286Z,0.70
2022-10-13T13:36:25.516Z,0.90
2022-10-13T13:38:55.085Z,1.20
2022-10-13T13:41:28.111Z,1.00
2022-10-13T13:44:00.248Z,0.80
2022-10-13T13:46:29.476Z,1.00
2022-10-13T13:48:57.582Z,0.70
2022-10-13T13:51:25.633Z,1.20
2022-10-13T13:53:53.699Z,1.50
2022-10-13T13:56:21.679Z,1.10
2022-10-13T13:58:49.777Z,1.20
2022-10-13T14:01:17.765Z,1.10
2022-10-13T14:03:45.713Z,1.10
2022-10-13T14:06:20.433Z,1.00
2022-10-13T14:08:51.340Z,1.90
2022-10-13T14:11:20.427Z,2.10
2022-10-13T14:13:49.053Z,2.10
2022-10-13T14:16:26.587Z,6.50
2022-10-13T14:18:59.446Z,3.70
2022-10-13T14:21:30.332Z,4.30
2022-10-13T14:24:02.032Z,1.50
2022-10-13T14:26:30.901Z,1.80
2022-10-13T14:28:58.738Z,2.80
2022-10-13T14:31:26.780Z,4.20
2022-10-13T14:33:55.145Z,3.60
2022-10-13T14:36:24.906Z,2.90
2022-10-13T14:38:53.330Z,1.50
2022-10-13T14:41:21.525Z,1.50
2022-10-13T14:43:54.788Z,1.00
2022-10-13T14:46:23.828Z,1.60
2022-10-13T14:48:51.819Z,2.40
2022-10-13T14:51:20.219Z,6.30
2022-10-13T14:53:48.553Z,2.80
2022-10-13T14:56:27.509Z,2.00
2022-10-13T14:59:00.179Z,3.20
2022-10-13T15:01:33.687Z,3.00
2022-10-13T15:04:02.192Z,5.20
2022-10-13T15:06:32.936Z,7.60
2022-10-13T15:09:01.032Z,3.20
2022-10-13T15:11:29.500Z,2.50
2022-10-13T15:13:57.498Z,3.00
2022-10-13T15:16:28.868Z,2.60
2022-10-13T15:18:57.312Z,1.90
2022-10-13T15:21:26.065Z,1.80
2022-10-13T15:23:54.036Z,2.30
2022-10-13T15:26:22.451Z,2.10
2022-10-13T15:28:52.673Z,2.40
2022-10-13T15:31:22.141Z,2.20
2022-10-13T15:33:52.987Z,2.40
2022-10-13T15:36:23.012Z,2.70
2022-10-13T15:38:53.918Z,3.00
2022-10-13T15:41:23.719Z,2.70
2022-10-13T15:43:51.677Z,2.70
2022-10-13T15:46:22.499Z,2.80
2022-10-13T15:48:53.597Z,2.70
2022-10-13T15:51:24.469Z,2.60
2022-10-13T15:53:52.451Z,3.30
2022-10-13T15:56:21.075Z,3.70
2022-10-13T15:58:49.305Z,4.20
2022-10-13T16:01:17.259Z,4.60
2022-10-13T16:03:45.543Z,3.80
2022-10-13T16:06:14.646Z,3.50
2022-10-13T16:08:45.561Z,4.10
2022-10-13T16:11:16.733Z,3.50
2022-10-13T16:13:49.671Z,4.30
2022-10-13T16:16:18.381Z,3.60
2022-10-13T16:18:46.974Z,2.50
2022-10-13T16:21:19.076Z,3.40
2022-10-13T16:23:48.255Z,2.70
2022-10-13T16:26:17.963Z,3.80
2022-10-13T16:28:48.258Z,3.60
2022-10-13T16:31:17.629Z,3.60
2022-10-13T16:33:46.347Z,3.40
2022-10-13T16:36:17.730Z,3.20
2022-10-13T16:38:47.514Z,3.90
2022-10-13T16:41:18.574Z,4.20
2022-10-13T16:43:48.103Z,5.20
2022-10-13T16:46:18.825Z,5.50
2022-10-13T16:48:48.210Z,8.80
2022-10-13T16:51:22.604Z,9.50
2022-10-13T16:53:57.656Z,14.10
2022-10-13T16:56:31.362Z,14.50
2022-10-13T16:59:02.104Z,16.00
2022-10-13T17:01:34.581Z,19.70
2022-10-13T17:04:03.664Z,21.10
2022-10-13T17:06:32.325Z,23.80
2022-10-13T17:09:03.443Z,23.50
2022-10-13T17:11:33.376Z,22.10
2022-10-13T17:14:01.984Z,27.10
2022-10-13T17:16:34.289Z,25.80
2022-10-13T17:19:02.923Z,24.00
2022-10-13T17:21:34.429Z,22.30
2022-10-13T17:24:02.372Z,20.90
2022-10-13T17:26:30.372Z,17.60
2022-10-13T17:28:58.754Z,16.20
2022-10-13T17:31:26.964Z,16.90
2022-10-13T17:33:55.046Z,15.90
2022-10-13T17:36:29.272Z,14.80
2022-10-13T17:39:04.388Z,15.20
2022-10-13T17:41:33.883Z,17.00
2022-10-13T17:44:02.619Z,20.60
2022-10-13T17:46:37.498Z,17.10
2022-10-13T17:49:10.107Z,18.20
2022-10-13T17:51:43.431Z,33.00
2022-10-13T17:54:15.942Z,29.10
2022-10-13T17:56:45.799Z,36.60
2022-10-13T17:59:15.790Z,24.30
2022-10-13T18:01:45.122Z,39.10
2022-10-13T18:04:25.306Z,15.10
2022-10-13T18:06:53.195Z,26.00
2022-10-13T18:09:24.332Z,21.10
2022-10-13T18:11:54.188Z,12.40
2022-10-13T18:14:24.811Z,11.20
2022-10-13T18:16:53.319Z,10.80
2022-10-13T18:19:22.276Z,9.50
2022-10-13T18:21:53.043Z,9.70
2022-10-13T18:24:24.882Z,11.80
2022-10-13T18:26:56.365Z,11.80
2022-10-13T18:29:24.879Z,10.30
2022-10-13T18:31:56.730Z,10.40
2022-10-13T18:34:24.995Z,10.70
2022-10-13T18:36:56.827Z,9.70
2022-10-13T18:39:27.939Z,9.10
2022-10-13T18:41:57.367Z,9.40
2022-10-13T18:44:32.721Z,9.40
2022-10-13T18:47:00.930Z,8.90
2022-10-13T18:49:31.906Z,10.20
2022-10-13T18:52:01.874Z,9.60
2022-10-13T18:54:30.982Z,9.20
2022-10-13T18:56:59.299Z,10.40
2022-10-13T18:59:27.368Z,10.10
2022-10-13T19:01:55.413Z,10.70
2022-10-13T19:04:24.113Z,11.20
2022-10-13T19:06:53.664Z,9.50
2022-10-13T19:09:21.742Z,9.10
2022-10-13T19:11:50.178Z,8.40
2022-10-13T19:14:19.483Z,9.40
2022-10-13T19:16:47.631Z,8.40
2022-10-13T19:19:15.625Z,8.50
2022-10-13T19:21:43.720Z,9.70
2022-10-13T19:24:12.409Z,9.50
2022-10-13T19:26:40.372Z,9.10
2022-10-13T19:29:11.897Z,8.80
2022-10-13T19:31:41.664Z,8.50
2022-10-13T19:34:12.571Z,7.60
2022-10-13T19:36:43.392Z,9.40
2022-10-13T19:39:21.477Z,8.30
2022-10-13T19:41:51.526Z,9.00
2022-10-13T19:44:21.081Z,9.40
2022-10-13T19:46:49.554Z,9.50
2022-10-13T19:49:20.750Z,8.80
2022-10-13T19:51:50.510Z,9.00
2022-10-13T19:54:20.146Z,9.70
2022-10-13T19:56:51.009Z,10.70
2022-10-13T19:59:19.108Z,8.80
2022-10-13T20:01:47.557Z,8.60
2022-10-13T20:04:18.714Z,9.60
2022-10-13T20:06:50.764Z,8.80
2022-10-13T20:09:20.011Z,9.80
2022-10-13T20:11:50.749Z,9.30
2022-10-13T20:14:19.241Z,10.00
2022-10-13T20:16:48.176Z,11.00
2022-10-13T20:19:19.490Z,12.10
2022-10-13T20:21:48.582Z,11.30
2022-10-13T20:24:16.721Z,9.90
2022-10-13T20:26:44.841Z,11.70
2022-10-13T20:29:12.992Z,10.90
2022-10-13T20:31:41.703Z,11.10
2022-10-13T20:34:10.958Z,9.90
2022-10-13T20:36:39.434Z,9.00
2022-10-13T20:39:09.257Z,10.60
2022-10-13T20:41:37.690Z,9.80
2022-10-13T20:44:06.589Z,10.40
2022-10-13T20:46:34.784Z,9.90
2022-10-13T20:49:13.127Z,8.90
2022-10-13T20:51:43.289Z,8.50
2022-10-13T20:54:14.281Z,10.10
2022-10-13T20:56:42.888Z,10.80
2022-10-13T20:59:15.132Z,11.90
2022-10-13T21:01:43.745Z,12.50
2022-10-13T21:04:12.434Z,12.40
2022-10-13T21:06:42.017Z,12.60
2022-10-13T21:09:10.835Z,13.10
2022-10-13T21:11:40.251Z,12.00
2022-10-13T21:14:09.900Z,12.20
2022-10-13T21:16:41.011Z,12.70
2022-10-13T21:19:12.934Z,15.10
2022-10-13T21:21:41.084Z,17.00
2022-10-13T21:24:10.550Z,23.30
2022-10-13T21:26:39.924Z,21.10
2022-10-13T21:29:16.262Z,16.50
2022-10-13T21:31:44.546Z,14.50
2022-10-13T21:34:12.567Z,12.30
2022-10-13T21:36:44.408Z,11.00
2022-10-13T21:39:14.722Z,9.40
2022-10-13T21:41:43.182Z,9.40
2022-10-13T21:44:14.160Z,10.90
2022-10-13T21:46:42.297Z,10.00
2022-10-13T21:49:10.641Z,9.60
2022-10-13T21:51:40.245Z,9.50
2022-10-13T21:54:11.884Z,9.70
2022-10-13T21:56:40.759Z,8.50
2022-10-13T21:59:10.353Z,8.70
2022-10-13T22:01:39.290Z,8.50
2022-10-13T22:04:14.347Z,7.40
2022-10-13T22:06:42.937Z,7.50
2022-10-13T22:09:11.497Z,6.40
2022-10-13T22:11:40.121Z,7.40
2022-10-13T22:14:12.634Z,6.40
2022-10-13T22:16:45.064Z,7.00
2022-10-13T22:19:15.121Z,8.70
2022-10-13T22:21:46.203Z,7.20
2022-10-13T22:24:18.787Z,7.60
2022-10-13T22:26:48.775Z,7.30
2022-10-13T22:29:20.452Z,6.20
2022-10-13T22:31:50.728Z,7.20
2022-10-13T22:34:19.095Z,7.50
2022-10-13T22:36:47.634Z,7.10
2022-10-13T22:39:16.099Z,7.80
2022-10-13T22:41:44.736Z,8.30
2022-10-13T22:44:13.767Z,9.70
2022-10-13T22:46:41.970Z,12.50
2022-10-13T22:49:14.965Z,14.30
2022-10-13T22:51:43.060Z,15.90
2022-10-13T22:54:12.550Z,15.10
2022-10-13T22:56:41.114Z,11.20
2022-10-13T22:59:12.137Z,9.00
2022-10-13T23:01:40.480Z,9.30
2022-10-13T23:04:09.114Z,8.10
2022-10-13T23:06:37.292Z,7.70
2022-10-13T23:09:10.881Z,7.40
2022-10-13T23:11:39.705Z,7.30
2022-10-13T23:14:09.219Z,8.00
2022-10-13T23:16:37.479Z,6.80
2022-10-13T23:19:05.683Z,7.30
2022-10-13T23:21:33.801Z,7.00
2022-10-13T23:24:06.625Z,7.00
2022-10-13T23:26:35.488Z,6.80
2022-10-13T23:29:05.043Z,7.60
2022-10-13T23:31:33.593Z,7.90
2022-10-13T23:34:02.068Z,7.80
2022-10-13T23:36:32.084Z,7.50
2022-10-13T23:39:03.834Z,7.10
2022-10-13T23:41:34.388Z,7.30
2022-10-13T23:44:02.588Z,8.30
2022-10-13T23:46:31.075Z,7.30
2022-10-13T23:48:59.241Z,7.90
2022-10-13T23:51:27.226Z,6.80
2022-10-13T23:53:55.590Z,6.70
2022-10-13T23:56:24.147Z,8.20
2022-10-13T23:58:51.952Z,7.90
